KLM060 LGKL-EHAM
Flight info
| Callsign | KLM060 |
|---|---|
| Flight time | N/A |
| Altitude | 38000 |
| Route | IPTAG UY115 TRL UN1 LATAN DCT XOLTA DCT IXONA DCT ROTAR DCT MOBDO DCT SOTOV DCT IRBIR DCT ASPAT DCT MASEK DCT MAPOX DCT NORKU |
| Aircraft | A339/H-SADE1E2E3GHIJ3J5M1P2RWXY/LB2D1 |
Departure
| Time | 2026-05-06 01:48 |
|---|---|
| Airport | Kalamata Airport (LGKL) |
Arrival
| Time | N/A |
|---|---|
| Airport | Amsterdam Airport Schiphol (EHAM) |
| Time | Latitude | Longitude | Altitude | Speed | Heading |
|---|---|---|---|---|---|
| 2026-05-06 01:36 | 37.05923 | 22.02582 | 25 ft | 0 kts | 259° |
| 2026-05-06 01:43 | 37.05923 | 22.02581 | 25 ft | 0 kts | 259° |
| 2026-05-06 01:43 | 37.05922 | 22.02565 | 25 ft | 2 kts | 271° |
| 2026-05-06 01:43 | 37.05990 | 22.02489 | 26 ft | 18 kts | 348° |
| 2026-05-06 01:44 | 37.06114 | 22.02533 | 25 ft | 18 kts | 12° |
| 2026-05-06 01:44 | 37.06237 | 22.02520 | 25 ft | 16 kts | 348° |
| 2026-05-06 01:44 | 37.06340 | 22.02491 | 26 ft | 14 kts | 346° |
| 2026-05-06 01:44 | 37.06429 | 22.02478 | 27 ft | 10 kts | 22° |
| 2026-05-06 01:45 | 37.06484 | 22.02499 | 28 ft | 22 kts | 6° |
| 2026-05-06 01:45 | 37.06633 | 22.02469 | 29 ft | 19 kts | 349° |
| 2026-05-06 01:45 | 37.06752 | 22.02442 | 29 ft | 15 kts | 349° |
| 2026-05-06 01:45 | 37.06847 | 22.02416 | 31 ft | 13 kts | 347° |
| 2026-05-06 01:46 | 37.07010 | 22.02379 | 32 ft | 28 kts | 349° |
| 2026-05-06 01:46 | 37.07196 | 22.02335 | 32 ft | 26 kts | 349° |
| 2026-05-06 01:46 | 37.07371 | 22.02293 | 33 ft | 24 kts | 349° |
| 2026-05-06 01:46 | 37.07532 | 22.02255 | 35 ft | 22 kts | 349° |
| 2026-05-06 01:47 | 37.07683 | 22.02218 | 35 ft | 21 kts | 348° |
| 2026-05-06 01:47 | 37.07818 | 22.02185 | 35 ft | 16 kts | 350° |
| 2026-05-06 01:47 | 37.07926 | 22.02194 | 35 ft | 14 kts | 20° |
| 2026-05-06 01:47 | 37.07963 | 22.02278 | 35 ft | 9 kts | 123° |
| 2026-05-06 01:48 | 37.07890 | 22.02307 | 35 ft | 22 kts | 169° |
| 2026-05-06 01:48 | 37.07455 | 22.02401 | 32 ft | 103 kts | 170° |
| 2026-05-06 01:48 | 37.06510 | 22.02623 | 43 ft | 167 kts | 169° |
| 2026-05-06 01:48 | 37.05374 | 22.02986 | 702 ft | 171 kts | 148° |
| 2026-05-06 01:49 | 37.04677 | 22.04100 | 1400 ft | 169 kts | 93° |
| 2026-05-06 01:49 | 37.04927 | 22.05458 | 2062 ft | 163 kts | 51° |
| 2026-05-06 01:49 | 37.05861 | 22.06237 | 2420 ft | 173 kts | 4° |
| 2026-05-06 01:49 | 37.07064 | 22.05883 | 2759 ft | 190 kts | 336° |
| 2026-05-06 01:50 | 37.08326 | 22.05160 | 3141 ft | 208 kts | 336° |
| 2026-05-06 01:50 | 37.09706 | 22.04366 | 3554 ft | 226 kts | 336° |
| 2026-05-06 01:50 | 37.11181 | 22.03518 | 3977 ft | 244 kts | 336° |
| 2026-05-06 01:50 | 37.12780 | 22.02602 | 4462 ft | 260 kts | 336° |
| 2026-05-06 01:51 | 37.14447 | 22.01649 | 5182 ft | 265 kts | 336° |
| 2026-05-06 01:51 | 37.16129 | 22.00687 | 5943 ft | 268 kts | 336° |
| 2026-05-06 01:51 | 37.17823 | 21.99720 | 6660 ft | 272 kts | 336° |
| 2026-05-06 01:51 | 37.19556 | 21.98731 | 7370 ft | 275 kts | 335° |
| 2026-05-06 01:52 | 37.21293 | 21.97740 | 8083 ft | 277 kts | 335° |
| 2026-05-06 01:52 | 37.23032 | 21.96746 | 8781 ft | 280 kts | 335° |
| 2026-05-06 01:52 | 37.24804 | 21.95733 | 9506 ft | 282 kts | 335° |
| 2026-05-06 01:52 | 37.26599 | 21.94706 | 10212 ft | 284 kts | 335° |
| 2026-05-06 01:53 | 37.28415 | 21.93667 | 10719 ft | 295 kts | 335° |
| 2026-05-06 01:53 | 37.30345 | 21.92560 | 11004 ft | 312 kts | 335° |
| 2026-05-06 01:53 | 37.32343 | 21.91414 | 11445 ft | 323 kts | 335° |
| 2026-05-06 01:53 | 37.34406 | 21.90233 | 12168 ft | 326 kts | 335° |
| 2026-05-06 01:54 | 37.36472 | 21.89048 | 12901 ft | 327 kts | 334° |
| 2026-05-06 01:54 | 37.38543 | 21.87861 | 13603 ft | 329 kts | 334° |
| 2026-05-06 01:54 | 37.40597 | 21.86682 | 14312 ft | 331 kts | 334° |
| 2026-05-06 01:54 | 37.42716 | 21.85464 | 15000 ft | 334 kts | 334° |
| 2026-05-06 01:55 | 37.44810 | 21.84260 | 15677 ft | 336 kts | 334° |
| 2026-05-06 01:55 | 37.46719 | 21.83161 | 16181 ft | 342 kts | 334° |
| 2026-05-06 01:55 | 37.48888 | 21.81911 | 16816 ft | 345 kts | 334° |
| 2026-05-06 01:55 | 37.51070 | 21.80654 | 17501 ft | 347 kts | 334° |
| 2026-05-06 01:56 | 37.53274 | 21.79384 | 18166 ft | 349 kts | 333° |
| 2026-05-06 01:56 | 37.55472 | 21.78116 | 18800 ft | 352 kts | 334° |
| 2026-05-06 01:56 | 37.57722 | 21.76817 | 19431 ft | 355 kts | 333° |
| 2026-05-06 01:56 | 37.59972 | 21.75518 | 20047 ft | 358 kts | 333° |
| 2026-05-06 01:57 | 37.62226 | 21.74216 | 20638 ft | 361 kts | 333° |
| 2026-05-06 01:57 | 37.64496 | 21.72902 | 21212 ft | 363 kts | 333° |
| 2026-05-06 01:57 | 37.66817 | 21.71558 | 21778 ft | 366 kts | 333° |
| 2026-05-06 01:57 | 37.69111 | 21.70229 | 22316 ft | 368 kts | 333° |
| 2026-05-06 01:58 | 37.71437 | 21.68882 | 22851 ft | 371 kts | 333° |
| 2026-05-06 01:58 | 37.73790 | 21.67516 | 23369 ft | 373 kts | 333° |
| 2026-05-06 01:58 | 37.76172 | 21.66134 | 23892 ft | 375 kts | 333° |
| 2026-05-06 01:58 | 37.78516 | 21.64771 | 24394 ft | 378 kts | 333° |
| 2026-05-06 01:59 | 37.80922 | 21.63371 | 24899 ft | 380 kts | 333° |
| 2026-05-06 01:59 | 37.83338 | 21.61967 | 25382 ft | 382 kts | 333° |
| 2026-05-06 01:59 | 37.85728 | 21.60575 | 25837 ft | 384 kts | 333° |
| 2026-05-06 01:59 | 37.88160 | 21.59161 | 26296 ft | 386 kts | 333° |
| 2026-05-06 02:00 | 37.90625 | 21.57724 | 26744 ft | 388 kts | 333° |
| 2026-05-06 02:00 | 37.93068 | 21.56299 | 27151 ft | 391 kts | 333° |
| 2026-05-06 02:00 | 37.95553 | 21.54848 | 27560 ft | 393 kts | 333° |
| 2026-05-06 02:00 | 37.98029 | 21.53402 | 27992 ft | 394 kts | 333° |
| 2026-05-06 02:01 | 38.00536 | 21.51937 | 28381 ft | 397 kts | 333° |
| 2026-05-06 02:01 | 38.03021 | 21.50483 | 28752 ft | 399 kts | 333° |
| 2026-05-06 02:01 | 38.05536 | 21.49008 | 29107 ft | 401 kts | 333° |
| 2026-05-06 02:01 | 38.08083 | 21.47516 | 29469 ft | 403 kts | 334° |
| 2026-05-06 02:02 | 38.10600 | 21.45982 | 29819 ft | 404 kts | 330° |
| 2026-05-06 02:02 | 38.12986 | 21.44033 | 30147 ft | 406 kts | 323° |
| 2026-05-06 02:02 | 38.15127 | 21.41704 | 30479 ft | 409 kts | 316° |
| 2026-05-06 02:02 | 38.17022 | 21.39012 | 30814 ft | 411 kts | 309° |
| 2026-05-06 02:03 | 38.18636 | 21.35980 | 31153 ft | 415 kts | 302° |
| 2026-05-06 02:03 | 38.19985 | 21.32803 | 31503 ft | 417 kts | 299° |
| 2026-05-06 02:03 | 38.21322 | 21.29530 | 31841 ft | 419 kts | 299° |
| 2026-05-06 02:03 | 38.22652 | 21.26241 | 32170 ft | 420 kts | 299° |
| 2026-05-06 02:04 | 38.23992 | 21.22918 | 32505 ft | 422 kts | 299° |
| 2026-05-06 02:04 | 38.25327 | 21.19603 | 32926 ft | 421 kts | 299° |
| 2026-05-06 02:04 | 38.26653 | 21.16311 | 33377 ft | 420 kts | 299° |
| 2026-05-06 02:04 | 38.27967 | 21.13041 | 33824 ft | 418 kts | 299° |
| 2026-05-06 02:05 | 38.29299 | 21.09728 | 34293 ft | 416 kts | 299° |
| 2026-05-06 02:05 | 38.30595 | 21.06505 | 34741 ft | 414 kts | 299° |
| 2026-05-06 02:05 | 38.31899 | 21.03259 | 35143 ft | 414 kts | 299° |
| 2026-05-06 02:05 | 38.33203 | 21.00001 | 35545 ft | 413 kts | 299° |
| 2026-05-06 02:06 | 38.34499 | 20.96763 | 35961 ft | 411 kts | 299° |
| 2026-05-06 02:06 | 38.35821 | 20.93557 | 36314 ft | 410 kts | 301° |
| 2026-05-06 02:06 | 38.37261 | 20.90430 | 36574 ft | 411 kts | 303° |
| 2026-05-06 02:06 | 38.38783 | 20.87349 | 36825 ft | 411 kts | 303° |
| 2026-05-06 02:07 | 38.40307 | 20.84281 | 37043 ft | 413 kts | 303° |
| 2026-05-06 02:07 | 38.41837 | 20.81206 | 37269 ft | 414 kts | 303° |
| 2026-05-06 02:07 | 38.43393 | 20.78071 | 37528 ft | 414 kts | 303° |
| 2026-05-06 02:07 | 38.44923 | 20.74988 | 37732 ft | 416 kts | 303° |
| 2026-05-06 02:08 | 38.46475 | 20.71857 | 37918 ft | 417 kts | 303° |
| 2026-05-06 02:08 | 38.48006 | 20.68761 | 38058 ft | 420 kts | 303° |
| 2026-05-06 02:08 | 38.51128 | 20.62445 | 38062 ft | 420 kts | 303° |
| 2026-05-06 02:09 | 38.54225 | 20.56168 | 38062 ft | 421 kts | 303° |
| 2026-05-06 02:09 | 38.57328 | 20.49863 | 38061 ft | 420 kts | 303° |
| 2026-05-06 02:10 | 38.60435 | 20.43541 | 38062 ft | 420 kts | 303° |
| 2026-05-06 02:10 | 38.63521 | 20.37250 | 38063 ft | 421 kts | 303° |
| 2026-05-06 02:11 | 38.66638 | 20.30879 | 38062 ft | 422 kts | 302° |
| 2026-05-06 02:11 | 38.69723 | 20.24566 | 38062 ft | 422 kts | 302° |
| 2026-05-06 02:12 | 38.72827 | 20.18199 | 38063 ft | 423 kts | 302° |
| 2026-05-06 02:12 | 38.75944 | 20.11793 | 38063 ft | 423 kts | 302° |
| 2026-05-06 02:13 | 38.79052 | 20.05395 | 38063 ft | 424 kts | 302° |
| 2026-05-06 02:13 | 38.82250 | 19.98796 | 38061 ft | 425 kts | 302° |
| 2026-05-06 02:14 | 38.85341 | 19.92403 | 38061 ft | 425 kts | 302° |
| 2026-05-06 02:14 | 38.88448 | 19.85966 | 38059 ft | 425 kts | 302° |
| 2026-05-06 02:15 | 38.91561 | 19.79500 | 38058 ft | 426 kts | 302° |
| 2026-05-06 02:15 | 38.94655 | 19.73062 | 38057 ft | 425 kts | 302° |
| 2026-05-06 02:16 | 38.97750 | 19.66610 | 38058 ft | 425 kts | 302° |
| 2026-05-06 02:16 | 39.00848 | 19.60139 | 38055 ft | 426 kts | 302° |
| 2026-05-06 02:17 | 39.03946 | 19.53651 | 38056 ft | 426 kts | 302° |
| 2026-05-06 02:17 | 39.07031 | 19.47178 | 38053 ft | 427 kts | 302° |
| 2026-05-06 02:18 | 39.10131 | 19.40661 | 38054 ft | 427 kts | 301° |
| 2026-05-06 02:18 | 39.13213 | 19.34167 | 38053 ft | 428 kts | 301° |
| 2026-05-06 02:19 | 39.16299 | 19.27654 | 38047 ft | 427 kts | 301° |
| 2026-05-06 02:19 | 39.19387 | 19.21121 | 38053 ft | 427 kts | 301° |
| 2026-05-06 02:20 | 39.23999 | 19.11337 | 38051 ft | 427 kts | 301° |
| 2026-05-06 02:21 | 39.27401 | 19.05037 | 38048 ft | 429 kts | 308° |
| 2026-05-06 02:21 | 39.31377 | 18.99301 | 38045 ft | 430 kts | 314° |
| 2026-05-06 02:22 | 39.35876 | 18.94220 | 38042 ft | 431 kts | 321° |
| 2026-05-06 02:22 | 39.40747 | 18.89723 | 38043 ft | 432 kts | 323° |
| 2026-05-06 02:23 | 39.45671 | 18.85305 | 38045 ft | 432 kts | 323° |
| 2026-05-06 02:23 | 39.50602 | 18.80870 | 38036 ft | 432 kts | 323° |
| 2026-05-06 02:24 | 39.55524 | 18.76435 | 38037 ft | 432 kts | 323° |
| 2026-05-06 02:24 | 39.60420 | 18.72014 | 38041 ft | 431 kts | 323° |
| 2026-05-06 02:25 | 39.65337 | 18.67564 | 38033 ft | 432 kts | 323° |
| 2026-05-06 02:25 | 39.70257 | 18.63105 | 38036 ft | 432 kts | 323° |
| 2026-05-06 02:26 | 39.75187 | 18.58629 | 38028 ft | 433 kts | 323° |
| 2026-05-06 02:26 | 39.80107 | 18.54155 | 38029 ft | 433 kts | 323° |
| 2026-05-06 02:27 | 39.85045 | 18.49654 | 38032 ft | 433 kts | 323° |
| 2026-05-06 02:27 | 39.89963 | 18.45165 | 38027 ft | 433 kts | 323° |
| 2026-05-06 02:28 | 39.94872 | 18.40676 | 38031 ft | 434 kts | 323° |
| 2026-05-06 02:28 | 39.99815 | 18.36149 | 38032 ft | 434 kts | 323° |
| 2026-05-06 02:29 | 40.04724 | 18.31644 | 38031 ft | 433 kts | 322° |
| 2026-05-06 02:29 | 40.09631 | 18.27134 | 38031 ft | 433 kts | 322° |
| 2026-05-06 02:30 | 40.14572 | 18.22581 | 38032 ft | 434 kts | 322° |
| 2026-05-06 02:30 | 40.19476 | 18.18056 | 38027 ft | 434 kts | 322° |
| 2026-05-06 02:31 | 40.24413 | 18.13492 | 38030 ft | 434 kts | 322° |
| 2026-05-06 02:31 | 40.29331 | 18.08937 | 38028 ft | 435 kts | 322° |
| 2026-05-06 02:32 | 40.34254 | 18.04372 | 38025 ft | 435 kts | 322° |
| 2026-05-06 02:32 | 40.39187 | 17.99786 | 38028 ft | 436 kts | 322° |
| 2026-05-06 02:33 | 40.44114 | 17.95198 | 38025 ft | 436 kts | 322° |
| 2026-05-06 02:33 | 40.45770 | 17.93654 | 38027 ft | 436 kts | 322° |
| 2026-05-06 02:34 | 40.53982 | 17.85984 | 38024 ft | 436 kts | 322° |
| 2026-05-06 02:34 | 40.58906 | 17.81373 | 38027 ft | 437 kts | 322° |
| 2026-05-06 02:35 | 40.63859 | 17.76727 | 38024 ft | 437 kts | 322° |
| 2026-05-06 02:35 | 40.68791 | 17.72091 | 38023 ft | 436 kts | 322° |
| 2026-05-06 02:36 | 40.73695 | 17.67475 | 38022 ft | 436 kts | 322° |
| 2026-05-06 02:36 | 40.78643 | 17.62807 | 38022 ft | 437 kts | 322° |
| 2026-05-06 02:37 | 40.83547 | 17.58173 | 38017 ft | 437 kts | 322° |
| 2026-05-06 02:37 | 40.88485 | 17.53497 | 38018 ft | 438 kts | 322° |
| 2026-05-06 02:38 | 40.93431 | 17.48804 | 38017 ft | 438 kts | 322° |
| 2026-05-06 02:38 | 40.98376 | 17.44104 | 38014 ft | 438 kts | 322° |
| 2026-05-06 02:39 | 41.03303 | 17.39415 | 38011 ft | 438 kts | 322° |
| 2026-05-06 02:39 | 41.08241 | 17.34704 | 38004 ft | 438 kts | 321° |
| 2026-05-06 02:40 | 41.13161 | 17.30001 | 38002 ft | 438 kts | 321° |
| 2026-05-06 02:40 | 41.18073 | 17.25297 | 38002 ft | 438 kts | 321° |
| 2026-05-06 02:41 | 41.23033 | 17.20539 | 38001 ft | 439 kts | 321° |
| 2026-05-06 02:41 | 41.27968 | 17.15796 | 37999 ft | 439 kts | 321° |
| 2026-05-06 02:42 | 41.32898 | 17.11047 | 37997 ft | 439 kts | 321° |
| 2026-05-06 02:42 | 41.37819 | 17.06298 | 37999 ft | 439 kts | 321° |
| 2026-05-06 02:43 | 41.42772 | 17.01510 | 37997 ft | 439 kts | 321° |
| 2026-05-06 02:43 | 41.47695 | 16.96741 | 37996 ft | 439 kts | 321° |
| 2026-05-06 02:44 | 41.52616 | 16.91968 | 37992 ft | 439 kts | 321° |
| 2026-05-06 02:44 | 41.57540 | 16.87181 | 37990 ft | 439 kts | 321° |
| 2026-05-06 02:45 | 41.62466 | 16.82380 | 37988 ft | 439 kts | 321° |
| 2026-05-06 02:45 | 41.67392 | 16.77570 | 37986 ft | 439 kts | 320° |
| 2026-05-06 02:46 | 41.72293 | 16.72776 | 37985 ft | 439 kts | 321° |
| 2026-05-06 02:46 | 41.77210 | 16.67958 | 37982 ft | 440 kts | 320° |
| 2026-05-06 02:47 | 41.82149 | 16.63110 | 37978 ft | 439 kts | 320° |
| 2026-05-06 02:47 | 41.87046 | 16.58293 | 37975 ft | 440 kts | 320° |
| 2026-05-06 02:48 | 41.91978 | 16.53433 | 37978 ft | 440 kts | 320° |
| 2026-05-06 02:48 | 41.96887 | 16.48583 | 37975 ft | 440 kts | 320° |
| 2026-05-06 02:49 | 42.01810 | 16.43712 | 37973 ft | 440 kts | 320° |
| 2026-05-06 02:49 | 42.06724 | 16.38841 | 37972 ft | 439 kts | 320° |
| 2026-05-06 02:50 | 42.11652 | 16.33945 | 37972 ft | 439 kts | 320° |
| 2026-05-06 02:50 | 42.16540 | 16.29079 | 37970 ft | 439 kts | 320° |
| 2026-05-06 02:51 | 42.21426 | 16.24206 | 37975 ft | 439 kts | 320° |
| 2026-05-06 02:51 | 42.26339 | 16.19296 | 37970 ft | 440 kts | 319° |
| 2026-05-06 02:52 | 42.31235 | 16.14395 | 37969 ft | 441 kts | 319° |
| 2026-05-06 02:52 | 42.36147 | 16.09465 | 37973 ft | 441 kts | 320° |
| 2026-05-06 02:53 | 42.41057 | 16.04530 | 37971 ft | 440 kts | 319° |
| 2026-05-06 02:53 | 42.45955 | 15.99596 | 37962 ft | 439 kts | 319° |
| 2026-05-06 02:54 | 42.50855 | 15.94650 | 37960 ft | 440 kts | 319° |
| 2026-05-06 02:54 | 42.55740 | 15.89712 | 37961 ft | 441 kts | 319° |
| 2026-05-06 02:55 | 42.60642 | 15.84742 | 37957 ft | 441 kts | 319° |
| 2026-05-06 02:55 | 42.65541 | 15.79766 | 37955 ft | 441 kts | 319° |
| 2026-05-06 02:56 | 42.70460 | 15.74759 | 37958 ft | 442 kts | 319° |
| 2026-05-06 02:56 | 42.75411 | 15.69867 | 37957 ft | 442 kts | 320° |
| 2026-05-06 02:57 | 42.80406 | 15.64969 | 37955 ft | 442 kts | 320° |
| 2026-05-06 02:57 | 42.85363 | 15.60089 | 37950 ft | 443 kts | 320° |
| 2026-05-06 02:58 | 42.90332 | 15.55179 | 37953 ft | 443 kts | 320° |
| 2026-05-06 02:58 | 42.95335 | 15.50226 | 37949 ft | 444 kts | 320° |
| 2026-05-06 02:59 | 43.00313 | 15.45285 | 37948 ft | 444 kts | 320° |
| 2026-05-06 02:59 | 43.05318 | 15.40307 | 37946 ft | 444 kts | 320° |
| 2026-05-06 03:00 | 43.10286 | 15.35357 | 37948 ft | 444 kts | 320° |
| 2026-05-06 03:00 | 43.15266 | 15.30382 | 37951 ft | 443 kts | 319° |
| 2026-05-06 03:01 | 43.20233 | 15.25414 | 37945 ft | 444 kts | 319° |
| 2026-05-06 03:01 | 43.25212 | 15.20420 | 37950 ft | 445 kts | 319° |
| 2026-05-06 03:02 | 43.30165 | 15.15441 | 37949 ft | 446 kts | 319° |
| 2026-05-06 03:02 | 43.35161 | 15.10410 | 37946 ft | 446 kts | 319° |
| 2026-05-06 03:03 | 43.40168 | 15.05358 | 37956 ft | 447 kts | 319° |
| 2026-05-06 03:03 | 43.45148 | 15.00322 | 37964 ft | 448 kts | 319° |
| 2026-05-06 03:04 | 43.50149 | 14.95256 | 37969 ft | 448 kts | 319° |
| 2026-05-06 03:04 | 43.55157 | 14.90169 | 37971 ft | 447 kts | 319° |
| 2026-05-06 03:05 | 43.60177 | 14.85061 | 37971 ft | 448 kts | 319° |
| 2026-05-06 03:05 | 43.65167 | 14.79974 | 37970 ft | 448 kts | 319° |
| 2026-05-06 03:06 | 43.70148 | 14.74882 | 37971 ft | 449 kts | 319° |
| 2026-05-06 03:06 | 43.75158 | 14.69751 | 37966 ft | 449 kts | 318° |
| 2026-05-06 03:07 | 43.80162 | 14.64615 | 37967 ft | 450 kts | 318° |
| 2026-05-06 03:07 | 43.85167 | 14.59464 | 37953 ft | 450 kts | 319° |
| 2026-05-06 03:08 | 43.90192 | 14.54289 | 37956 ft | 451 kts | 319° |
| 2026-05-06 03:08 | 43.95204 | 14.49110 | 37960 ft | 451 kts | 319° |
| 2026-05-06 03:09 | 44.00196 | 14.43943 | 37956 ft | 450 kts | 319° |
| 2026-05-06 03:09 | 44.05214 | 14.38736 | 37952 ft | 451 kts | 318° |
| 2026-05-06 03:10 | 44.10243 | 14.33510 | 37957 ft | 451 kts | 318° |
| 2026-05-06 03:10 | 44.15255 | 14.28287 | 37956 ft | 451 kts | 318° |
| 2026-05-06 03:11 | 44.20266 | 14.23056 | 37956 ft | 452 kts | 317° |
| 2026-05-06 03:11 | 44.25254 | 14.17835 | 37951 ft | 451 kts | 317° |
| 2026-05-06 03:12 | 44.30275 | 14.12569 | 37949 ft | 453 kts | 317° |
| 2026-05-06 03:12 | 44.35295 | 14.07293 | 37947 ft | 453 kts | 317° |
| 2026-05-06 03:13 | 44.40316 | 14.02004 | 37946 ft | 452 kts | 317° |
| 2026-05-06 03:13 | 44.45338 | 13.96703 | 37932 ft | 453 kts | 317° |
| 2026-05-06 03:14 | 44.50350 | 13.91401 | 37926 ft | 452 kts | 317° |
| 2026-05-06 03:14 | 44.55340 | 13.86109 | 37923 ft | 451 kts | 317° |
| 2026-05-06 03:15 | 44.60313 | 13.80824 | 37918 ft | 452 kts | 317° |
| 2026-05-06 03:15 | 44.65300 | 13.75514 | 37917 ft | 451 kts | 317° |
| 2026-05-06 03:16 | 44.70305 | 13.70169 | 37932 ft | 451 kts | 317° |
| 2026-05-06 03:16 | 44.75279 | 13.64850 | 37749 ft | 450 kts | 317° |
| 2026-05-06 03:16 | 44.77757 | 13.62192 | 37873 ft | 451 kts | 317° |
| 2026-05-06 03:17 | 44.80243 | 13.59524 | 37908 ft | 452 kts | 317° |
| 2026-05-06 03:17 | 44.85155 | 13.54034 | 37916 ft | 449 kts | 314° |
| 2026-05-06 03:18 | 44.89737 | 13.48111 | 37919 ft | 448 kts | 312° |
| 2026-05-06 03:18 | 44.94235 | 13.42172 | 37917 ft | 447 kts | 312° |
| 2026-05-06 03:19 | 44.98754 | 13.36195 | 37913 ft | 446 kts | 312° |
| 2026-05-06 03:19 | 45.03286 | 13.30197 | 37912 ft | 445 kts | 311° |
| 2026-05-06 03:20 | 45.10045 | 13.21225 | 37908 ft | 447 kts | 311° |
| 2026-05-06 03:20 | 45.14563 | 13.15215 | 37908 ft | 447 kts | 311° |
| 2026-05-06 03:21 | 45.19074 | 13.09196 | 37915 ft | 447 kts | 311° |
| 2026-05-06 03:21 | 45.23591 | 13.03164 | 37906 ft | 448 kts | 312° |
| 2026-05-06 03:22 | 45.28412 | 12.97477 | 37904 ft | 453 kts | 318° |
| 2026-05-06 03:22 | 45.33561 | 12.92279 | 37900 ft | 456 kts | 319° |
| 2026-05-06 03:23 | 45.38753 | 12.87118 | 37908 ft | 456 kts | 319° |
| 2026-05-06 03:23 | 45.43931 | 12.81956 | 37917 ft | 456 kts | 319° |
| 2026-05-06 03:24 | 45.49077 | 12.76804 | 37919 ft | 456 kts | 319° |
| 2026-05-06 03:24 | 45.54277 | 12.71585 | 37920 ft | 456 kts | 319° |
| 2026-05-06 03:25 | 45.59464 | 12.66365 | 37923 ft | 457 kts | 319° |
| 2026-05-06 03:25 | 45.64646 | 12.61138 | 37927 ft | 458 kts | 319° |
| 2026-05-06 03:26 | 45.69825 | 12.55902 | 37926 ft | 459 kts | 319° |
| 2026-05-06 03:26 | 45.75030 | 12.50630 | 37923 ft | 459 kts | 319° |
| 2026-05-06 03:27 | 45.80222 | 12.45354 | 37921 ft | 459 kts | 319° |
| 2026-05-06 03:27 | 45.85422 | 12.40061 | 37927 ft | 460 kts | 319° |
| 2026-05-06 03:28 | 45.90623 | 12.34754 | 37925 ft | 460 kts | 319° |
| 2026-05-06 03:28 | 45.95797 | 12.29464 | 37929 ft | 460 kts | 319° |
| 2026-05-06 03:29 | 46.01018 | 12.24108 | 37928 ft | 461 kts | 319° |
| 2026-05-06 03:29 | 46.06237 | 12.18746 | 37925 ft | 461 kts | 319° |
| 2026-05-06 03:30 | 46.11441 | 12.13384 | 37928 ft | 462 kts | 318° |
| 2026-05-06 03:30 | 46.16662 | 12.07992 | 37932 ft | 463 kts | 318° |
| 2026-05-06 03:31 | 46.21888 | 12.02582 | 37936 ft | 463 kts | 318° |
| 2026-05-06 03:31 | 46.27097 | 11.97176 | 37929 ft | 465 kts | 318° |
| 2026-05-06 03:32 | 46.32336 | 11.91726 | 37928 ft | 464 kts | 318° |
| 2026-05-06 03:32 | 46.37577 | 11.86261 | 37928 ft | 464 kts | 318° |
| 2026-05-06 03:33 | 46.42791 | 11.80767 | 37925 ft | 463 kts | 316° |
| 2026-05-06 03:33 | 46.47830 | 11.75041 | 37922 ft | 464 kts | 315° |
| 2026-05-06 03:34 | 46.52893 | 11.69218 | 37913 ft | 464 kts | 316° |
| 2026-05-06 03:34 | 46.57953 | 11.63390 | 37929 ft | 465 kts | 315° |
| 2026-05-06 03:35 | 46.62980 | 11.57597 | 37933 ft | 465 kts | 315° |
| 2026-05-06 03:35 | 46.68037 | 11.51748 | 37929 ft | 465 kts | 316° |
| 2026-05-06 03:36 | 46.73080 | 11.45905 | 37915 ft | 466 kts | 316° |
| 2026-05-06 03:36 | 46.78148 | 11.40022 | 37926 ft | 466 kts | 316° |
| 2026-05-06 03:37 | 46.83199 | 11.34141 | 37928 ft | 466 kts | 315° |
| 2026-05-06 03:37 | 46.88293 | 11.28350 | 37932 ft | 468 kts | 319° |
| 2026-05-06 03:38 | 46.93990 | 11.23604 | 37920 ft | 477 kts | 330° |
| 2026-05-06 03:38 | 47.00314 | 11.20380 | 37910 ft | 487 kts | 341° |
| 2026-05-06 03:39 | 47.07000 | 11.18768 | 37920 ft | 493 kts | 348° |
| 2026-05-06 03:39 | 47.13828 | 11.17657 | 37926 ft | 493 kts | 349° |
| 2026-05-06 03:40 | 47.20633 | 11.16541 | 37910 ft | 493 kts | 349° |
| 2026-05-06 03:40 | 47.27421 | 11.15391 | 37890 ft | 493 kts | 349° |
| 2026-05-06 03:41 | 47.34233 | 11.14225 | 37900 ft | 494 kts | 349° |
| 2026-05-06 03:41 | 47.41003 | 11.13061 | 37907 ft | 493 kts | 349° |
| 2026-05-06 03:42 | 47.47805 | 11.11893 | 37909 ft | 493 kts | 349° |
| 2026-05-06 03:42 | 47.54586 | 11.10721 | 37891 ft | 493 kts | 349° |
| 2026-05-06 03:43 | 47.61367 | 11.09386 | 37883 ft | 492 kts | 347° |
| 2026-05-06 03:43 | 47.68089 | 11.07833 | 37895 ft | 491 kts | 346° |
| 2026-05-06 03:44 | 47.74829 | 11.06280 | 37861 ft | 492 kts | 347° |
| 2026-05-06 03:44 | 47.81599 | 11.04735 | 37836 ft | 491 kts | 347° |
| 2026-05-06 03:45 | 47.88354 | 11.03200 | 37844 ft | 492 kts | 347° |
| 2026-05-06 03:45 | 47.95092 | 11.01666 | 37837 ft | 492 kts | 347° |
| 2026-05-06 03:46 | 48.01850 | 11.00123 | 37819 ft | 491 kts | 347° |
| 2026-05-06 03:46 | 48.08573 | 10.98585 | 37825 ft | 491 kts | 347° |
| 2026-05-06 03:47 | 48.15291 | 10.97048 | 37839 ft | 491 kts | 347° |
| 2026-05-06 03:47 | 48.22018 | 10.95502 | 37826 ft | 490 kts | 347° |
| 2026-05-06 03:48 | 48.28757 | 10.93948 | 37823 ft | 491 kts | 347° |
| 2026-05-06 03:48 | 48.35486 | 10.92391 | 37820 ft | 491 kts | 348° |
| 2026-05-06 03:49 | 48.42243 | 10.90825 | 37817 ft | 491 kts | 348° |
| 2026-05-06 03:49 | 48.48973 | 10.89261 | 37809 ft | 491 kts | 348° |
| 2026-05-06 03:50 | 48.55712 | 10.87691 | 37808 ft | 491 kts | 348° |
| 2026-05-06 03:50 | 48.59078 | 10.86905 | 37920 ft | 491 kts | 348° |
| 2026-05-06 03:50 | 48.62463 | 10.86114 | 37781 ft | 491 kts | 348° |
| 2026-05-06 03:51 | 48.69143 | 10.84550 | 37763 ft | 490 kts | 348° |
| 2026-05-06 03:51 | 48.75884 | 10.82968 | 37794 ft | 490 kts | 348° |
| 2026-05-06 03:52 | 48.82603 | 10.81383 | 37848 ft | 490 kts | 348° |
| 2026-05-06 03:52 | 48.89334 | 10.79793 | 37808 ft | 490 kts | 348° |
| 2026-05-06 03:53 | 48.96008 | 10.78215 | 37790 ft | 490 kts | 348° |
| 2026-05-06 03:53 | 49.02720 | 10.76621 | 37797 ft | 489 kts | 348° |
| 2026-05-06 03:54 | 49.09438 | 10.75022 | 37800 ft | 490 kts | 348° |
| 2026-05-06 03:54 | 49.16135 | 10.73132 | 37798 ft | 487 kts | 343° |
| 2026-05-06 03:55 | 49.22569 | 10.70176 | 37801 ft | 484 kts | 336° |
| 2026-05-06 03:55 | 49.28722 | 10.66178 | 37805 ft | 482 kts | 332° |
| 2026-05-06 03:56 | 49.34777 | 10.61830 | 37807 ft | 482 kts | 332° |
| 2026-05-06 03:56 | 49.40802 | 10.57488 | 37805 ft | 481 kts | 332° |
| 2026-05-06 03:57 | 49.46858 | 10.53129 | 37801 ft | 482 kts | 332° |
| 2026-05-06 03:57 | 49.52922 | 10.48761 | 37800 ft | 482 kts | 332° |
| 2026-05-06 03:58 | 49.58958 | 10.44404 | 37790 ft | 482 kts | 332° |
| 2026-05-06 03:58 | 49.65012 | 10.40024 | 37786 ft | 481 kts | 332° |
| 2026-05-06 03:59 | 49.71023 | 10.35661 | 37779 ft | 482 kts | 332° |
| 2026-05-06 03:59 | 49.77069 | 10.31263 | 37777 ft | 482 kts | 331° |
| 2026-05-06 04:00 | 49.83135 | 10.26836 | 37777 ft | 481 kts | 332° |
| 2026-05-06 04:00 | 49.89141 | 10.22440 | 37772 ft | 481 kts | 332° |
| 2026-05-06 04:01 | 49.95167 | 10.18019 | 37772 ft | 481 kts | 332° |
| 2026-05-06 04:01 | 50.01188 | 10.13589 | 37770 ft | 480 kts | 332° |
| 2026-05-06 04:02 | 50.07236 | 10.09127 | 37771 ft | 481 kts | 332° |
| 2026-05-06 04:02 | 50.13226 | 10.04696 | 37773 ft | 480 kts | 332° |
| 2026-05-06 04:03 | 50.19260 | 10.00217 | 37769 ft | 481 kts | 332° |
| 2026-05-06 04:03 | 50.25318 | 9.95711 | 37766 ft | 482 kts | 332° |
| 2026-05-06 04:04 | 50.31329 | 9.91224 | 37764 ft | 481 kts | 332° |
| 2026-05-06 04:04 | 50.37360 | 9.86713 | 37767 ft | 481 kts | 332° |
| 2026-05-06 04:05 | 50.43368 | 9.82204 | 37763 ft | 481 kts | 332° |
| 2026-05-06 04:05 | 50.49368 | 9.77689 | 37755 ft | 481 kts | 332° |
| 2026-05-06 04:06 | 50.55395 | 9.73140 | 37757 ft | 481 kts | 332° |
| 2026-05-06 04:06 | 50.61382 | 9.68608 | 37751 ft | 481 kts | 332° |